Time;durP1;ratioP1;P1;durP2;ratioP2;P2;SDS_P1;SDS_P2;PMS_P1;PMS_P2;Temp;Humidity;BMP_temperature;BMP_pressure;BME280_temperature;BME280_humidity;BME280_pressure;Samples;Min_cycle;Max_cycle;Signal;HPM_P1;HPM_P2
2022/12/13 00:01:13;;;;;;;45.37;18.23;;;-3.20;99.90;;;;;;4990543;28;20618;-49
2022/12/13 00:03:39;;;;;;;44.07;19.43;;;-3.20;99.90;;;;;;4990757;28;20557;-52
2022/12/13 00:06:07;;;;;;;47.20;18.70;;;-3.30;99.90;;;;;;4991648;28;20437;-52
2022/12/13 00:08:33;;;;;;;38.67;16.70;;;-3.30;99.90;;;;;;4993567;28;20129;-48
2022/12/13 00:11:01;;;;;;;42.00;16.83;;;-3.30;99.90;;;;;;4993786;28;20433;-47
2022/12/13 00:13:27;;;;;;;44.37;18.27;;;-3.30;99.90;;;;;;4993764;28;20495;-50
2022/12/13 00:15:58;;;;;;;41.00;16.80;;;-3.40;99.90;;;;;;4993946;28;20473;-47
2022/12/13 00:18:24;;;;;;;40.20;18.03;;;-3.30;99.90;;;;;;4993495;28;20441;-50
2022/12/13 00:20:50;;;;;;;42.97;19.17;;;-3.30;99.90;;;;;;4993709;28;20436;-46
2022/12/13 00:23:16;;;;;;;49.87;20.87;;;-3.30;99.90;;;;;;4993652;28;20437;-50
2022/12/13 00:25:42;;;;;;;39.70;17.97;;;-3.40;99.90;;;;;;4993664;28;20026;-50
2022/12/13 00:28:08;;;;;;;44.50;18.33;;;-3.40;99.90;;;;;;4993230;28;20410;-47
2022/12/13 00:30:34;;;;;;;44.07;18.97;;;-3.40;99.90;;;;;;4993378;28;20084;-49
2022/12/13 00:32:59;;;;;;;45.83;18.47;;;-3.40;99.90;;;;;;4993555;28;20109;-45
2022/12/13 00:35:25;;;;;;;40.60;18.27;;;-3.50;99.90;;;;;;4993477;28;20577;-45
2022/12/13 00:37:51;;;;;;;46.07;19.03;;;-3.50;99.90;;;;;;4993144;28;20041;-47
2022/12/13 00:40:17;;;;;;;47.83;19.63;;;-3.50;99.90;;;;;;4992970;28;20040;-47
2022/12/13 00:42:43;;;;;;;47.90;19.50;;;-3.50;99.90;;;;;;4993359;28;20026;-47
2022/12/13 00:45:08;;;;;;;42.03;19.67;;;-3.50;99.90;;;;;;4993335;28;20030;-47
2022/12/13 00:47:35;;;;;;;44.07;18.20;;;-3.50;99.90;;;;;;4993096;28;20423;-48
2022/12/13 00:50:02;;;;;;;44.33;18.43;;;-3.60;99.90;;;;;;4993008;28;20053;-46
2022/12/13 00:52:28;;;;;;;43.13;17.17;;;-3.50;99.90;;;;;;4993149;28;20436;-47
2022/12/13 00:54:53;;;;;;;46.40;19.40;;;-3.50;99.90;;;;;;4992951;28;20491;-46
2022/12/13 00:57:20;;;;;;;45.87;19.53;;;-3.60;99.90;;;;;;4992865;28;20050;-47
2022/12/13 00:59:46;;;;;;;43.70;17.93;;;-3.50;99.90;;;;;;4991437;28;20847;-51
2022/12/13 01:02:11;;;;;;;39.33;16.63;;;-3.60;99.90;;;;;;4993067;28;20501;-50
2022/12/13 01:04:37;;;;;;;40.40;17.50;;;-3.60;99.90;;;;;;4992954;28;20479;-49
2022/12/13 01:07:03;;;;;;;45.90;19.30;;;-3.60;99.90;;;;;;4992541;28;20045;-46
2022/12/13 01:09:31;;;;;;;43.47;18.30;;;-3.70;99.90;;;;;;4992677;28;20546;-52
2022/12/13 01:12:03;;;;;;;42.47;17.93;;;-3.70;99.90;;;;;;4992608;28;20780;-48
2022/12/13 01:14:29;;;;;;;39.30;16.57;;;-3.70;99.90;;;;;;4992790;28;20962;-49
2022/12/13 01:16:55;;;;;;;42.57;17.90;;;-3.70;99.90;;;;;;4992126;28;20449;-46
2022/12/13 01:19:22;;;;;;;43.17;17.83;;;-3.70;99.90;;;;;;4992194;28;20451;-46
2022/12/13 01:21:52;;;;;;;42.87;17.67;;;-3.80;99.90;;;;;;4992345;28;20441;-46
2022/12/13 01:24:20;;;;;;;43.57;18.33;;;-3.80;99.90;;;;;;4992707;28;20425;-48
2022/12/13 01:26:46;;;;;;;44.70;17.63;;;-3.70;99.90;;;;;;4992383;28;20830;-52
2022/12/13 01:29:12;;;;;;;42.37;17.23;;;-3.80;99.90;;;;;;4992431;28;20433;-51
2022/12/13 01:31:40;;;;;;;39.37;16.10;;;-3.80;99.90;;;;;;4992341;28;20440;-51
2022/12/13 01:34:09;;;;;;;45.83;18.07;;;-3.90;99.90;;;;;;4992490;28;20487;-48
2022/12/13 01:36:35;;;;;;;42.35;16.38;;;-3.80;99.90;;;;;;4992008;28;20508;-55
2022/12/13 01:39:02;;;;;;;44.53;16.40;;;-3.90;99.90;;;;;;5000610;28;20566;-52
2022/12/13 01:41:28;;;;;;;43.07;17.60;;;-3.90;99.90;;;;;;5011860;28;20521;-46
2022/12/13 01:44:01;;;;;;;40.33;16.07;;;-4.00;99.90;;;;;;5011770;28;20508;-49
2022/12/13 01:46:36;;;;;;;46.03;18.17;;;-4.00;99.90;;;;;;5011544;28;20480;-52
2022/12/13 01:49:14;;;;;;;38.73;16.87;;;-4.00;99.90;;;;;;5011475;28;20827;-49
2022/12/13 01:51:44;;;;;;;39.77;15.43;;;-4.00;99.90;;;;;;5011924;28;20813;-51
2022/12/13 01:54:13;;;;;;;36.97;16.00;;;-4.00;99.90;;;;;;5011551;28;20452;-53
2022/12/13 01:56:58;;;;;;;32.22;12.10;;;-4.00;99.90;;;;;;5011363;28;20468;-51
2022/12/13 01:59:25;;;;;;;39.57;16.70;;;-4.00;99.90;;;;;;5011333;28;20526;-51
2022/12/13 02:01:52;;;;;;;40.70;15.83;;;-4.10;99.90;;;;;;5011654;28;20433;-52
2022/12/13 02:04:29;;;;;;;42.37;16.43;;;-4.20;99.90;;;;;;5011544;28;20421;-51
2022/12/13 02:06:55;;;;;;;37.87;15.77;;;-4.20;99.90;;;;;;5011082;28;20449;-49
2022/12/13 02:09:21;;;;;;;37.40;15.43;;;-4.20;99.90;;;;;;5011186;28;20435;-52
2022/12/13 02:11:49;;;;;;;41.93;15.83;;;-4.20;99.90;;;;;;5011242;28;20941;-51
2022/12/13 02:14:15;;;;;;;38.63;15.97;;;-4.20;99.90;;;;;;5011293;28;20432;-47
2022/12/13 02:17:07;;;;;;;36.93;14.67;;;-4.10;99.90;;;;;;5010949;28;20471;-47
2022/12/13 02:19:49;;;;;;;40.07;15.43;;;-4.10;99.90;;;;;;5011049;28;20032;-47
2022/12/13 02:22:29;;;;;;;33.53;14.27;;;-4.10;99.90;;;;;;5011135;28;20443;-47
2022/12/13 02:25:14;;;;;;;36.77;15.07;;;-4.10;99.90;;;;;;5011085;28;20972;-49
2022/12/13 02:28:03;;;;;;;39.53;15.57;;;-4.20;99.90;;;;;;5010869;28;20437;-47
2022/12/13 02:30:41;;;;;;;38.08;15.80;;;-4.20;99.90;;;;;;5010635;28;20528;-46
2022/12/13 02:33:39;;;;;;;35.23;14.77;;;-4.20;99.90;;;;;;5011313;28;20041;-48
2022/12/13 02:36:31;;;;;;;36.77;15.27;;;-4.30;99.90;;;;;;5010759;28;20468;-48
2022/12/13 02:39:15;;;;;;;40.30;14.67;;;-4.30;99.90;;;;;;5010799;28;20452;-47
2022/12/13 02:41:48;;;;;;;40.83;16.13;;;-4.40;99.90;;;;;;5010729;28;20527;-50
2022/12/13 02:44:17;;;;;;;35.47;14.63;;;-4.40;99.90;;;;;;5011052;28;20429;-48
2022/12/13 02:47:07;;;;;;;42.63;15.00;;;-4.40;99.90;;;;;;5010463;28;20447;-48
2022/12/13 02:49:38;;;;;;;37.23;14.87;;;-4.40;99.90;;;;;;5010980;28;20786;-46
2022/12/13 02:52:07;;;;;;;35.10;14.43;;;-4.40;99.90;;;;;;5010879;28;20476;-50
2022/12/13 02:54:33;;;;;;;38.90;14.53;;;-4.50;99.90;;;;;;5010803;28;20582;-49
2022/12/13 02:56:59;;;;;;;40.57;15.03;;;-4.50;99.90;;;;;;5010500;28;20523;-47
2022/12/13 02:59:35;;;;;;;42.10;16.23;;;-4.50;99.90;;;;;;5010639;28;20040;-52
2022/12/13 03:02:28;;;;;;;39.80;15.97;;;-4.50;99.90;;;;;;5010507;28;21201;-47
2022/12/13 03:08:03;;;;;;;40.53;15.63;;;-4.50;99.90;;;;;;5010348;28;20507;-47
2022/12/13 03:10:35;;;;;;;34.00;14.77;;;-4.50;99.90;;;;;;5010839;28;20996;-50
2022/12/13 03:15:56;;;;;;;43.00;16.50;;;-4.60;99.90;;;;;;5010644;28;21028;-46
2022/12/13 03:18:26;;;;;;;38.13;16.10;;;-4.60;99.90;;;;;;5010434;28;20888;-50
2022/12/13 03:20:57;;;;;;;43.40;15.88;;;-4.70;99.90;;;;;;5010616;28;20429;-48
2022/12/13 03:23:23;;;;;;;41.70;16.07;;;-4.70;99.90;;;;;;5010703;28;20057;-52
2022/12/13 03:25:53;;;;;;;42.77;15.87;;;-4.70;99.90;;;;;;5010698;28;20444;-47
2022/12/13 03:28:19;;;;;;;38.90;14.55;;;-4.70;99.90;;;;;;5010739;28;20444;-50
2022/12/13 03:30:45;;;;;;;37.53;16.10;;;-4.70;99.90;;;;;;5010433;28;20104;-48
2022/12/13 03:33:11;;;;;;;40.97;15.93;;;-4.70;99.90;;;;;;5010980;28;21004;-47
2022/12/13 03:35:39;;;;;;;41.87;15.00;;;-4.70;99.90;;;;;;5010797;28;20497;-48
2022/12/13 03:38:04;;;;;;;39.50;15.37;;;-4.70;99.90;;;;;;5010657;28;20041;-47
2022/12/13 03:40:32;;;;;;;43.17;16.70;;;-4.80;99.90;;;;;;5010757;28;20429;-50
2022/12/13 03:42:57;;;;;;;41.07;16.33;;;-4.80;99.90;;;;;;5014467;28;20438;-52
2022/12/13 03:45:23;;;;;;;37.70;15.73;;;-4.80;99.90;;;;;;5014325;28;20437;-48
2022/12/13 03:47:49;;;;;;;44.93;17.97;;;-4.80;99.90;;;;;;5014211;28;20113;-52
2022/12/13 03:50:15;;;;;;;41.70;16.63;;;-4.90;99.90;;;;;;5014048;28;20041;-51
2022/12/13 03:52:40;;;;;;;44.37;16.30;;;-4.90;99.90;;;;;;5014339;28;20033;-48
2022/12/13 03:55:06;;;;;;;39.20;16.47;;;-4.90;99.90;;;;;;5014024;28;20033;-48
2022/12/13 03:57:32;;;;;;;42.10;16.00;;;-4.80;99.90;;;;;;5014032;28;20022;-50
2022/12/13 03:59:58;;;;;;;42.33;15.60;;;-4.80;99.90;;;;;;5013908;28;20441;-53
2022/12/13 04:02:23;;;;;;;46.10;16.07;;;-4.90;99.90;;;;;;5013923;28;20026;-50
2022/12/13 04:04:49;;;;;;;44.77;16.67;;;-4.90;99.90;;;;;;5014025;28;20657;-49
2022/12/13 04:07:15;;;;;;;43.40;16.53;;;-4.90;99.90;;;;;;5013623;28;20107;-48
2022/12/13 04:09:40;;;;;;;41.90;16.17;;;-4.90;99.90;;;;;;5012473;28;20030;-46
2022/12/13 04:14:50;;;;;;;39.67;15.27;;;-5.00;99.90;;;;;;5013723;28;20168;-48
2022/12/13 04:17:16;;;;;;;44.60;16.30;;;-4.90;99.90;;;;;;5013382;28;20515;-47
2022/12/13 04:19:41;;;;;;;42.83;15.53;;;-4.90;99.90;;;;;;5013453;28;20033;-52
2022/12/13 04:22:07;;;;;;;40.37;16.40;;;-4.90;99.90;;;;;;5013395;28;20033;-53
2022/12/13 04:24:33;;;;;;;39.90;16.77;;;-4.90;99.90;;;;;;5013475;28;20038;-49
2022/12/13 04:27:00;;;;;;;42.23;16.27;;;-4.90;99.90;;;;;;5011890;28;20597;-49
2022/12/13 04:29:25;;;;;;;42.07;16.47;;;-4.90;99.90;;;;;;5005951;28;20439;-51
2022/12/13 04:31:51;;;;;;;39.20;15.53;;;-4.80;99.90;;;;;;5003229;28;20520;-51
2022/12/13 04:34:17;;;;;;;42.43;15.67;;;-4.90;99.90;;;;;;5011739;28;20034;-47
2022/12/13 04:36:42;;;;;;;40.73;15.37;;;-4.90;99.90;;;;;;5011575;28;20450;-49
2022/12/13 04:39:08;;;;;;;41.53;16.50;;;-5.00;99.90;;;;;;5011431;28;20086;-49
2022/12/13 04:41:38;;;;;;;41.67;15.97;;;-5.10;99.90;;;;;;5011555;28;20045;-50
2022/12/13 04:44:05;;;;;;;43.85;15.65;;;-5.10;99.90;;;;;;5010990;28;20419;-47
2022/12/13 04:46:31;;;;;;;38.47;15.57;;;-5.10;99.90;;;;;;5010474;28;20034;-52
2022/12/13 04:48:57;;;;;;;39.47;16.10;;;-5.00;99.90;;;;;;5011056;28;20495;-51
2022/12/13 04:51:23;;;;;;;40.37;15.40;;;-5.00;99.90;;;;;;5010553;28;20038;-50
2022/12/13 04:53:49;;;;;;;46.33;15.97;;;-5.00;99.90;;;;;;5008035;28;20411;-46
2022/12/13 04:56:15;;;;;;;40.97;15.50;;;-5.00;99.90;;;;;;5010259;28;20048;-47
2022/12/13 04:58:40;;;;;;;42.57;16.23;;;-5.00;99.90;;;;;;5010343;28;20429;-50
2022/12/13 05:01:07;;;;;;;41.07;16.00;;;-5.00;99.90;;;;;;5009956;28;20489;-48
2022/12/13 05:03:34;;;;;;;40.83;15.93;;;-5.00;99.90;;;;;;5011066;28;20030;-49
2022/12/13 05:06:08;;;;;;;39.67;14.77;;;-5.00;99.90;;;;;;5010319;28;20444;-49
2022/12/13 05:08:36;;;;;;;40.13;15.67;;;-5.00;99.90;;;;;;5010177;28;20949;-46
2022/12/13 05:11:02;;;;;;;35.60;15.20;;;-5.00;99.90;;;;;;5010678;28;20996;-51
2022/12/13 05:13:28;;;;;;;44.20;15.93;;;-5.00;99.90;;;;;;5010656;28;20520;-48
2022/12/13 05:15:58;;;;;;;49.00;16.23;;;-5.00;99.90;;;;;;5010046;28;20491;-51
2022/12/13 05:18:25;;;;;;;39.93;15.53;;;-5.00;99.90;;;;;;5010669;28;20026;-49
2022/12/13 05:20:51;;;;;;;37.60;15.53;;;-4.90;99.90;;;;;;5010232;28;20952;-53
2022/12/13 05:23:21;;;;;;;40.00;16.00;;;-4.90;99.90;;;;;;5010792;28;20496;-49
2022/12/13 05:25:47;;;;;;;41.00;15.60;;;-4.90;99.90;;;;;;5010422;28;20774;-50
2022/12/13 05:28:12;;;;;;;38.60;15.17;;;-4.90;99.90;;;;;;5010751;28;20463;-51
2022/12/13 05:30:42;;;;;;;39.00;15.53;;;-5.00;99.90;;;;;;5009334;28;20108;-52
2022/12/13 05:33:08;;;;;;;43.42;14.88;;;-4.90;99.90;;;;;;5010716;28;20037;-48
2022/12/13 05:35:35;;;;;;;38.23;14.63;;;-4.90;99.90;;;;;;5008818;28;20029;-46
2022/12/13 05:38:00;;;;;;;39.67;15.00;;;-4.90;99.90;;;;;;5010045;28;20852;-51
2022/12/13 05:40:28;;;;;;;36.77;14.90;;;-5.00;99.90;;;;;;5009957;28;20428;-49
2022/12/13 05:42:54;;;;;;;40.53;16.43;;;-5.00;99.90;;;;;;5010540;28;20063;-48
2022/12/13 05:45:20;;;;;;;36.90;14.93;;;-5.00;99.90;;;;;;5009017;28;20456;-46
2022/12/13 05:47:46;;;;;;;38.53;14.93;;;-5.00;99.90;;;;;;5009785;28;20490;-46
2022/12/13 05:50:14;;;;;;;38.93;14.23;;;-5.00;99.90;;;;;;5009724;28;20429;-48
2022/12/13 05:52:40;;;;;;;34.67;13.63;;;-5.00;99.90;;;;;;5010163;28;20659;-46
2022/12/13 05:55:07;;;;;;;37.87;14.83;;;-5.10;99.90;;;;;;5009546;28;20456;-46
2022/12/13 05:57:33;;;;;;;34.87;14.30;;;-5.10;99.90;;;;;;5009731;28;20467;-51
2022/12/13 05:59:58;;;;;;;35.37;14.47;;;-5.10;99.90;;;;;;5009564;28;20464;-50
2022/12/13 06:02:24;;;;;;;39.17;15.40;;;-5.10;99.90;;;;;;5009490;28;20029;-51
2022/12/13 06:04:50;;;;;;;38.93;15.20;;;-5.10;99.90;;;;;;5009580;28;20026;-44
2022/12/13 06:07:16;;;;;;;43.00;16.20;;;-5.10;99.90;;;;;;5009209;28;20026;-50
2022/12/13 06:09:42;;;;;;;42.27;14.97;;;-5.10;99.90;;;;;;5009754;28;20115;-48
2022/12/13 06:12:11;;;;;;;40.00;14.53;;;-5.10;99.90;;;;;;5009984;28;20045;-52
2022/12/13 06:14:37;;;;;;;39.20;16.23;;;-5.10;99.90;;;;;;5009388;28;20034;-52
2022/12/13 06:17:03;;;;;;;39.30;16.53;;;-5.10;99.90;;;;;;5008315;28;20033;-52
2022/12/13 06:19:28;;;;;;;39.40;15.40;;;-5.20;99.90;;;;;;5009508;28;20033;-54
2022/12/13 06:21:54;;;;;;;39.43;15.17;;;-5.20;99.90;;;;;;5009388;28;20610;-50
2022/12/13 06:24:22;;;;;;;42.53;15.03;;;-5.20;99.90;;;;;;5009845;28;20613;-50
2022/12/13 06:26:49;;;;;;;37.00;14.43;;;-5.30;99.90;;;;;;5009241;28;20460;-49
2022/12/13 06:29:16;;;;;;;38.77;15.47;;;-5.30;99.90;;;;;;5009268;28;21077;-56
2022/12/13 06:31:42;;;;;;;39.23;14.63;;;-5.40;99.90;;;;;;5006470;28;20441;-48
2022/12/13 06:34:07;;;;;;;39.50;14.80;;;-5.50;99.90;;;;;;5006164;28;20456;-51
2022/12/13 06:36:33;;;;;;;41.37;16.27;;;-5.40;99.90;;;;;;5006597;28;20030;-48
2022/12/13 06:39:03;;;;;;;43.83;15.00;;;-5.30;99.90;;;;;;5009168;28;20022;-52
2022/12/13 06:41:29;;;;;;;44.60;15.67;;;-5.40;99.90;;;;;;5008468;28;20037;-52
2022/12/13 06:43:54;;;;;;;39.37;15.10;;;-5.40;99.90;;;;;;5009279;28;20441;-53
2022/12/13 06:46:20;;;;;;;42.57;15.20;;;-5.40;99.90;;;;;;5008204;28;20065;-46
2022/12/13 06:48:46;;;;;;;36.93;14.37;;;-5.40;99.90;;;;;;5009095;28;20045;-46
2022/12/13 06:51:12;;;;;;;38.30;14.77;;;-5.40;99.90;;;;;;5009232;28;20041;-47
2022/12/13 06:53:39;;;;;;;42.30;15.17;;;-5.40;99.90;;;;;;5009580;28;20033;-47
2022/12/13 06:56:10;;;;;;;38.63;14.00;;;-5.40;99.90;;;;;;5009374;28;20414;-47
2022/12/13 06:58:36;;;;;;;41.53;13.80;;;-5.40;99.90;;;;;;5008500;28;20432;-48
2022/12/13 07:01:16;;;;;;;42.60;16.30;;;-5.40;99.90;;;;;;5008341;28;20432;-49
2022/12/13 07:03:42;;;;;;;33.47;13.23;;;-5.50;99.90;;;;;;5009494;28;20432;-53
2022/12/13 07:06:13;;;;;;;39.67;14.63;;;-5.50;99.90;;;;;;5008877;28;20468;-50
2022/12/13 07:08:39;;;;;;;41.93;15.00;;;-5.60;99.90;;;;;;5008719;28;20469;-47
2022/12/13 07:11:05;;;;;;;34.43;14.20;;;-5.70;99.90;;;;;;5008737;28;20432;-49
2022/12/13 07:13:32;;;;;;;39.10;15.13;;;-5.70;99.90;;;;;;5008307;28;20449;-47
2022/12/13 07:15:59;;;;;;;40.97;14.10;;;-5.60;99.90;;;;;;5007326;28;20037;-51
2022/12/13 07:18:25;;;;;;;36.20;15.07;;;-5.70;99.90;;;;;;5012661;28;20436;-54
2022/12/13 07:20:51;;;;;;;40.80;16.00;;;-5.70;99.90;;;;;;5012384;28;20425;-53
2022/12/13 07:23:17;;;;;;;39.03;14.73;;;-5.80;99.90;;;;;;5011888;28;20486;-52
2022/12/13 07:25:52;;;;;;;42.43;15.47;;;-5.80;99.90;;;;;;5012041;28;20523;-63
2022/12/13 07:28:18;;;;;;;39.10;15.13;;;-5.70;99.90;;;;;;5011028;28;20432;-64
2022/12/13 07:30:44;;;;;;;39.63;15.37;;;-5.70;99.90;;;;;;5008836;28;20448;-64
2022/12/13 07:33:09;;;;;;;40.73;15.07;;;-5.70;99.90;;;;;;5012498;28;20452;-63
2022/12/13 07:35:35;;;;;;;41.20;16.07;;;-5.70;99.90;;;;;;5011920;28;20065;-60
2022/12/13 07:38:01;;;;;;;37.50;15.03;;;-5.70;99.90;;;;;;5010431;28;20105;-49
2022/12/13 07:40:27;;;;;;;36.37;15.87;;;-5.70;99.90;;;;;;5011823;28;20521;-49
2022/12/13 07:42:54;;;;;;;40.07;16.13;;;-5.80;99.90;;;;;;5012749;28;20091;-51
2022/12/13 07:45:22;;;;;;;39.30;14.63;;;-5.80;99.90;;;;;;5010568;28;20029;-49
2022/12/13 07:47:48;;;;;;;41.17;16.27;;;-5.70;99.90;;;;;;5011591;28;20789;-52
2022/12/13 07:50:15;;;;;;;39.57;15.63;;;-5.70;99.90;;;;;;5011392;28;20480;-51
2022/12/13 07:52:41;;;;;;;35.77;14.40;;;-5.60;99.90;;;;;;5012456;28;20431;-50
2022/12/13 07:55:07;;;;;;;40.37;15.23;;;-5.60;99.90;;;;;;5012226;28;20448;-53
2022/12/13 07:57:33;;;;;;;34.17;14.77;;;-5.60;99.90;;;;;;5011592;28;20037;-67
2022/12/13 08:02:40;;;;;;;42.22;15.15;;;-5.50;99.90;;;;;;4950755;28;20569;-49
2022/12/13 08:05:06;;;;;;;39.10;16.80;;;-5.40;99.90;;;;;;4953789;28;20031;-47
2022/12/13 08:07:32;;;;;;;41.03;15.37;;;-5.20;99.90;;;;;;4953224;29;20430;-47
2022/12/13 08:09:58;;;;;;;39.10;16.50;;;-5.10;99.90;;;;;;4953168;28;20427;-47
2022/12/13 08:12:23;;;;;;;39.70;15.63;;;-5.00;99.90;;;;;;4953443;28;20027;-51
2022/12/13 08:14:50;;;;;;;38.97;15.60;;;-5.00;99.90;;;;;;4952818;29;20622;-51
2022/12/13 08:17:15;;;;;;;45.33;16.77;;;-5.00;99.90;;;;;;4951808;29;20023;-54
2022/12/13 08:19:41;;;;;;;39.13;16.63;;;-5.00;99.90;;;;;;4953233;28;20454;-52
2022/12/13 08:22:10;;;;;;;36.13;15.53;;;-4.90;99.90;;;;;;4953243;28;20058;-47
2022/12/13 08:24:36;;;;;;;43.08;16.95;;;-4.90;99.90;;;;;;4953418;28;20045;-50
2022/12/13 08:27:02;;;;;;;42.70;16.03;;;-4.90;99.90;;;;;;4952534;28;20145;-48
2022/12/13 08:29:33;;;;;;;39.47;16.80;;;-4.80;99.90;;;;;;4952471;28;21062;-48
2022/12/13 08:31:59;;;;;;;44.37;16.20;;;-4.80;99.90;;;;;;4952206;28;20147;-51
2022/12/13 08:34:24;;;;;;;39.80;15.53;;;-4.70;99.90;;;;;;4953028;28;20791;-52
2022/12/13 08:36:51;;;;;;;41.53;16.97;;;-4.70;99.90;;;;;;4952702;28;20463;-50
2022/12/13 08:39:16;;;;;;;42.33;18.03;;;-4.70;99.90;;;;;;4952773;28;20114;-50
2022/12/13 08:41:42;;;;;;;43.50;17.13;;;-4.70;99.90;;;;;;4952788;28;20642;-53
2022/12/13 08:44:08;;;;;;;51.83;20.30;;;-4.70;99.90;;;;;;4968574;28;20422;-52
2022/12/13 08:46:34;;;;;;;51.20;19.07;;;-4.60;99.90;;;;;;4968760;28;20105;-53
2022/12/13 08:48:59;;;;;;;43.27;17.93;;;-4.60;99.90;;;;;;4964636;28;20110;-52
2022/12/13 08:51:25;;;;;;;38.80;16.33;;;-4.50;99.90;;;;;;4970429;28;20082;-52
2022/12/13 08:53:51;;;;;;;43.00;16.90;;;-4.50;99.90;;;;;;4952546;28;20042;-51
2022/12/13 08:56:20;;;;;;;40.03;16.27;;;-4.40;99.90;;;;;;4949571;28;20031;-52
2022/12/13 08:58:50;;;;;;;48.13;18.83;;;-4.40;99.90;;;;;;4962846;28;20034;-51
2022/12/13 09:01:16;;;;;;;42.23;17.23;;;-4.30;99.90;;;;;;4961954;28;20085;-51
2022/12/13 09:03:42;;;;;;;38.93;16.83;;;-4.20;99.90;;;;;;4959693;28;20538;-52
2022/12/13 09:06:09;;;;;;;41.30;17.60;;;-4.10;99.90;;;;;;4950434;28;20474;-53
2022/12/13 09:08:36;;;;;;;42.60;17.73;;;-4.10;99.90;;;;;;4950877;28;20095;-53
2022/12/13 09:11:03;;;;;;;43.60;18.43;;;-4.00;99.90;;;;;;4956379;28;20633;-49
2022/12/13 09:13:31;;;;;;;42.27;19.23;;;-3.90;99.90;;;;;;4955578;28;20873;-49
2022/12/13 09:15:58;;;;;;;49.73;18.33;;;-3.80;99.90;;;;;;4956018;28;20824;-51
2022/12/13 09:18:24;;;;;;;40.37;17.53;;;-3.80;99.90;;;;;;4957668;28;20446;-51
2022/12/13 09:20:50;;;;;;;45.97;18.43;;;-3.70;99.90;;;;;;4950642;28;20550;-47
2022/12/13 09:23:16;;;;;;;41.73;17.13;;;-3.60;99.90;;;;;;4958548;28;20533;-49
2022/12/13 09:25:42;;;;;;;47.33;19.63;;;-3.50;99.90;;;;;;4948636;28;20406;-48
2022/12/13 09:28:08;;;;;;;46.37;17.37;;;-3.40;99.90;;;;;;4957547;28;20476;-50
2022/12/13 09:30:38;;;;;;;43.07;16.93;;;-3.30;99.90;;;;;;4948268;28;20448;-48
2022/12/13 09:33:05;;;;;;;40.10;17.40;;;-3.20;99.90;;;;;;4958821;28;20450;-48
2022/12/13 09:35:30;;;;;;;35.73;15.80;;;-3.10;99.90;;;;;;4950057;28;20856;-47
2022/12/13 09:37:56;;;;;;;39.23;16.50;;;-2.90;99.90;;;;;;4949825;28;20478;-47
2022/12/13 09:40:26;;;;;;;35.33;15.20;;;-2.80;99.90;;;;;;4950223;28;20491;-47
2022/12/13 09:42:56;;;;;;;35.30;15.33;;;-2.80;99.90;;;;;;4949912;28;20043;-49
2022/12/13 09:45:22;;;;;;;;;;;-2.70;99.90;;;;;;4949157;28;20506;-50
2022/12/13 09:47:50;;;;;;;37.00;15.70;;;-2.70;99.90;;;;;;4950899;28;19914;-48
2022/12/13 09:50:25;;;;;;;38.93;15.90;;;-2.70;99.90;;;;;;4950277;28;20458;-48
2022/12/13 09:52:51;;;;;;;32.30;14.67;;;-2.70;99.90;;;;;;4952596;28;20446;-49
2022/12/13 09:55:43;;;;;;;37.50;15.77;;;-2.70;99.90;;;;;;4949359;28;20470;-49
2022/12/13 09:58:30;;;;;;;36.23;16.37;;;-2.60;99.90;;;;;;4951949;28;20031;-50
2022/12/13 10:00:57;;;;;;;35.00;16.13;;;-2.70;99.90;;;;;;4949399;28;20550;-53
2022/12/13 10:03:25;;;;;;;34.17;14.90;;;-2.70;99.90;;;;;;4952919;28;20385;-52
2022/12/13 10:05:58;;;;;;;34.43;14.33;;;-2.40;99.90;;;;;;4950798;28;20751;-48
2022/12/13 10:08:39;;;;;;;33.13;15.53;;;-1.60;99.90;;;;;;4951100;28;20134;-49
2022/12/13 10:11:05;;;;;;;28.83;14.83;;;-1.20;99.90;;;;;;4951108;28;20497;-50
2022/12/13 10:13:37;;;;;;;35.90;15.63;;;-1.20;99.90;;;;;;4951241;28;20035;-54
2022/12/13 10:16:27;;;;;;;32.30;15.70;;;-0.90;99.90;;;;;;4949523;28;20023;-50
2022/12/13 10:18:54;;;;;;;34.30;15.60;;;-0.90;99.90;;;;;;4949627;28;20059;-48
2022/12/13 10:21:40;;;;;;;34.03;15.77;;;-1.20;99.90;;;;;;4950744;28;20391;-50
2022/12/13 10:24:24;;;;;;;37.90;16.97;;;-1.60;99.90;;;;;;4951036;28;20031;-51
2022/12/13 10:26:50;;;;;;;30.13;15.10;;;-1.70;99.90;;;;;;4950149;28;20161;-48
2022/12/13 10:29:16;;;;;;;34.03;15.80;;;-1.70;99.90;;;;;;4950429;28;20039;-47
2022/12/13 10:31:50;;;;;;;32.07;15.60;;;-1.70;99.90;;;;;;4949913;28;20031;-50
2022/12/13 10:34:27;;;;;;;33.50;16.40;;;-1.20;99.90;;;;;;4951402;29;20053;-53
2022/12/13 10:36:53;;;;;;;29.67;13.43;;;-0.70;99.90;;;;;;4949919;29;20096;-53
2022/12/13 10:39:40;;;;;;;29.20;13.13;;;-0.40;99.90;;;;;;4950759;28;20106;-53
2022/12/13 10:42:13;;;;;;;33.27;15.53;;;0.10;99.90;;;;;;4965453;28;20031;-53
2022/12/13 10:44:39;;;;;;;27.40;13.73;;;0.00;99.90;;;;;;4950456;28;20039;-50
2022/12/13 10:47:18;;;;;;;30.10;13.20;;;-0.20;99.90;;;;;;4950064;28;20106;-51
2022/12/13 10:49:54;;;;;;;26.63;13.30;;;0.10;99.90;;;;;;4950704;29;20031;-52
2022/12/13 10:52:30;;;;;;;31.13;13.97;;;0.50;99.90;;;;;;4949480;29;20054;-51
2022/12/13 10:55:03;;;;;;;28.13;12.93;;;0.60;99.90;;;;;;4950773;29;20381;-53
2022/12/13 10:57:30;;;;;;;27.33;12.43;;;0.90;99.90;;;;;;4950324;28;20035;-54
2022/12/13 10:59:56;;;;;;;25.83;11.90;;;0.80;99.90;;;;;;4949755;28;20054;-52
2022/12/13 11:02:32;;;;;;;28.07;14.07;;;0.80;99.90;;;;;;4949879;28;20556;-52
2022/12/13 11:04:58;;;;;;;28.77;13.37;;;0.60;99.90;;;;;;4950747;28;20035;-51
2022/12/13 11:07:25;;;;;;;27.87;13.37;;;0.50;99.90;;;;;;4950437;28;20112;-51
2022/12/13 11:09:50;;;;;;;25.77;12.33;;;0.30;99.90;;;;;;4950464;28;20038;-49
2022/12/13 11:12:21;;;;;;;25.90;11.93;;;0.50;99.90;;;;;;4950387;29;20032;-49
2022/12/13 11:15:12;;;;;;;25.27;12.47;;;0.90;99.90;;;;;;4952152;28;20452;-48
2022/12/13 11:17:50;;;;;;;24.33;10.90;;;1.10;99.90;;;;;;4968839;28;20035;-47
2022/12/13 11:20:23;;;;;;;26.87;12.23;;;1.20;99.90;;;;;;4949966;28;20036;-48
2022/12/13 11:23:18;;;;;;;23.60;11.37;;;1.40;99.90;;;;;;4950304;28;20050;-49
2022/12/13 11:25:44;;;;;;;22.60;10.87;;;1.30;99.90;;;;;;4950039;29;20081;-49
2022/12/13 11:28:22;;;;;;;24.73;11.10;;;1.30;99.90;;;;;;4950190;28;20114;-48
2022/12/13 11:31:02;;;;;;;25.37;11.33;;;1.30;99.90;;;;;;4948696;29;20031;-47
2022/12/13 11:33:35;;;;;;;24.30;11.03;;;1.10;99.90;;;;;;4950628;29;20200;-50
2022/12/13 11:36:14;;;;;;;21.47;10.97;;;1.20;99.90;;;;;;4966993;28;20125;-50
2022/12/13 11:38:51;;;;;;;22.88;10.07;;;0.90;99.90;;;;;;4969057;28;20054;-49
2022/12/13 11:41:34;;;;;;;24.93;11.00;;;0.80;99.90;;;;;;4969229;28;20047;-49
2022/12/13 11:44:33;;;;;;;27.00;12.53;;;0.80;99.90;;;;;;4969257;28;20042;-50
2022/12/13 11:47:00;;;;;;;27.42;12.18;;;0.70;99.90;;;;;;4967305;28;20473;-51
2022/12/13 11:49:37;;;;;;;22.33;10.07;;;1.10;99.90;;;;;;4969455;28;20031;-51
2022/12/13 11:52:24;;;;;;;27.43;12.40;;;1.10;99.90;;;;;;4969185;28;20307;-51
2022/12/13 11:54:53;;;;;;;23.60;11.30;;;1.40;99.90;;;;;;4969419;28;20407;-48
2022/12/13 11:57:28;;;;;;;21.80;10.48;;;1.60;99.90;;;;;;4968526;28;20066;-51
2022/12/13 12:00:03;;;;;;;19.30;9.43;;;1.60;99.90;;;;;;4968880;28;20085;-48
2022/12/13 12:02:40;;;;;;;21.50;9.67;;;1.60;99.90;;;;;;4970435;28;20038;-49
2022/12/13 12:05:16;;;;;;;21.83;9.53;;;1.50;99.90;;;;;;4973066;28;20034;-51
2022/12/13 12:07:48;;;;;;;19.87;9.13;;;1.60;99.90;;;;;;4972679;28;20038;-50
2022/12/13 12:10:13;;;;;;;21.83;9.27;;;1.60;99.90;;;;;;4972090;28;20069;-49
2022/12/13 12:12:45;;;;;;;27.40;11.17;;;1.70;99.90;;;;;;4972599;28;20062;-51
2022/12/13 12:15:21;;;;;;;24.37;10.50;;;2.00;99.90;;;;;;4971963;28;20527;-50
2022/12/13 12:17:47;;;;;;;21.77;9.70;;;2.10;99.90;;;;;;4971996;28;20090;-50
2022/12/13 12:20:18;;;;;;;22.73;10.20;;;2.50;99.90;;;;;;4972181;28;20417;-50
2022/12/13 12:22:58;;;;;;;23.80;9.93;;;2.50;99.90;;;;;;4972432;28;20102;-50
2022/12/13 12:26:16;;;;;;;22.60;9.33;;;2.90;99.70;;;;;;4972281;28;20084;-48
2022/12/13 12:29:08;;;;;;;21.83;8.90;;;3.20;98.50;;;;;;4968762;28;20042;-50
2022/12/13 12:31:41;;;;;;;22.83;10.27;;;3.50;97.40;;;;;;4968568;28;20055;-48
2022/12/13 12:34:33;;;;;;;20.13;8.93;;;3.80;96.90;;;;;;4971708;28;20047;-51
2022/12/13 12:37:29;;;;;;;19.53;8.77;;;4.20;95.30;;;;;;4971791;28;20041;-52
2022/12/13 12:40:13;;;;;;;19.17;8.77;;;4.30;94.70;;;;;;4971777;28;20035;-53
2022/12/13 12:42:53;;;;;;;15.53;8.30;;;4.40;94.20;;;;;;4972642;28;20034;-49
2022/12/13 12:45:34;;;;;;;16.23;7.90;;;4.60;93.50;;;;;;4970939;28;20066;-51
2022/12/13 12:48:06;;;;;;;17.73;8.50;;;4.60;92.30;;;;;;4971797;28;20030;-50
2022/12/13 12:50:42;;;;;;;16.00;8.23;;;4.80;91.40;;;;;;4971894;28;20120;-52
2022/12/13 12:53:26;;;;;;;18.23;8.90;;;4.50;91.40;;;;;;4972340;28;20368;-53
2022/12/13 12:56:24;;;;;;;19.13;9.13;;;4.20;92.10;;;;;;4960995;28;20122;-49